createdAt,value
2018-01-19T11:52:23.108Z,99554
2018-01-19T11:53:22.881Z,99555
2018-01-19T11:54:22.970Z,99550
2018-01-19T11:55:23.007Z,99553
2018-01-19T11:57:24.161Z,99556
2018-01-19T11:58:23.245Z,99555
2018-01-19T11:59:23.303Z,99549
2018-01-19T12:00:24.220Z,99552
2018-01-19T12:01:23.470Z,99545
2018-01-19T12:02:23.343Z,99552
2018-01-19T12:03:24.487Z,99554
2018-01-19T12:04:23.511Z,99558
2018-01-19T12:05:24.631Z,99550
2018-01-19T12:06:23.568Z,99557
2018-01-19T12:07:23.585Z,99553
2018-01-19T12:08:23.615Z,99540
2018-01-19T12:09:23.739Z,99555
2018-01-19T12:10:24.894Z,99564
2018-01-19T12:11:25.028Z,99559
2018-01-19T12:12:23.965Z,99556
2018-01-19T12:13:25.110Z,99559
2018-01-19T12:14:25.115Z,99549
2018-01-19T12:15:24.093Z,99553
2018-01-19T12:16:24.059Z,99555
2018-01-19T12:17:24.200Z,99543
2018-01-19T12:18:24.252Z,99546
2018-01-19T12:19:24.396Z,99541
2018-01-19T12:20:24.410Z,99556
2018-01-19T12:21:25.268Z,99547
2018-01-19T12:22:25.888Z,99550
2018-01-19T12:23:25.457Z,99554
2018-01-19T12:24:24.378Z,99544
2018-01-19T12:25:25.422Z,99536
2018-01-19T12:26:24.624Z,99543
2018-01-19T12:27:24.614Z,99532
2018-01-19T12:28:25.611Z,99537
2018-01-19T12:29:24.604Z,99535
2018-01-19T12:30:25.920Z,99527
2018-01-19T12:31:25.794Z,99536
2018-01-19T12:32:24.785Z,99534
2018-01-19T12:33:24.994Z,99532
2018-01-19T12:34:25.936Z,99524
2018-01-19T12:35:26.137Z,99530
2018-01-19T12:36:25.006Z,99535
2018-01-19T12:37:25.113Z,99533
2018-01-19T12:38:25.677Z,99534
2018-01-19T12:39:25.026Z,99532
2018-01-19T12:40:26.161Z,99532
2018-01-19T12:41:26.192Z,99524
2018-01-19T12:42:26.245Z,99524
2018-01-19T12:43:25.208Z,99519
2018-01-19T12:44:26.323Z,99520
2018-01-19T12:45:25.321Z,99526
2018-01-19T12:46:25.333Z,99520
2018-01-19T12:47:25.545Z,99519
2018-01-19T12:48:25.463Z,99526
2018-01-19T12:49:25.655Z,99513
2018-01-19T12:50:26.699Z,99523
2018-01-19T12:51:25.727Z,99521
2018-01-19T12:52:26.834Z,99533
2018-01-19T12:53:25.731Z,99534
2018-01-19T12:54:26.915Z,99534
2018-01-19T12:55:25.910Z,99535
2018-01-19T12:56:26.984Z,99538
2018-01-19T12:57:25.902Z,99535
2018-01-19T12:58:25.972Z,99530
2018-01-19T12:59:26.174Z,99534
2018-01-19T13:00:26.056Z,99521
2018-01-19T13:01:27.026Z,99526
2018-01-19T13:02:26.140Z,99531
2018-01-19T13:03:27.339Z,99524
2018-01-19T13:04:26.292Z,99530
2018-01-19T13:05:27.453Z,99531
2018-01-19T13:06:27.426Z,99530
2018-01-19T13:07:27.542Z,99532
2018-01-19T13:08:27.571Z,99533
2018-01-19T13:09:27.613Z,99531
2018-01-19T13:10:26.607Z,99541
2018-01-19T13:11:27.571Z,99543
2018-01-19T13:12:26.782Z,99536
2018-01-19T13:13:27.884Z,99533
2018-01-19T13:14:26.949Z,99522
2018-01-19T13:15:26.861Z,99526
2018-01-19T13:16:27.070Z,99535
2018-01-19T13:17:27.026Z,99534
2018-01-19T13:18:27.228Z,99534
2018-01-19T13:19:28.120Z,99525
2018-01-19T13:20:28.143Z,99534
2018-01-19T13:21:28.326Z,99528
2018-01-19T13:22:27.325Z,99540
2018-01-19T13:23:27.332Z,99538
2018-01-19T13:24:27.518Z,99538
2018-01-19T13:25:27.477Z,99542
2018-01-19T13:26:28.648Z,99543
2018-01-19T13:27:27.538Z,99543
2018-01-19T13:28:27.740Z,99543
2018-01-19T13:29:28.608Z,99543
2018-01-19T13:30:27.714Z,99546
2018-01-19T13:31:27.773Z,99546
2018-01-19T13:32:28.380Z,99551
2018-01-19T13:33:27.851Z,99541
2018-01-19T13:34:27.898Z,99541
2018-01-19T13:35:29.053Z,99553
2018-01-19T13:36:28.253Z,99557
2018-01-19T13:37:28.276Z,99556
2018-01-19T13:38:28.185Z,99541
2018-01-19T13:39:29.273Z,99554
2018-01-19T13:40:28.363Z,99553
2018-01-19T13:41:28.343Z,99557
2018-01-19T13:42:29.794Z,99556
2018-01-19T13:43:28.552Z,99557
2018-01-19T13:44:28.443Z,99563
2018-01-19T13:45:28.534Z,99565
2018-01-19T13:46:28.569Z,99567
2018-01-19T13:47:28.550Z,99563
2018-01-19T13:48:29.735Z,99561
2018-01-19T13:49:28.778Z,99558
2018-01-19T13:50:28.708Z,99559
2018-01-19T13:51:29.922Z,99557
2018-01-19T13:52:29.009Z,99559
2018-01-19T13:53:28.932Z,99550
2018-01-19T13:54:29.979Z,99551
2018-01-19T13:55:29.115Z,99550
2018-01-19T13:56:29.078Z,99554
2018-01-19T13:57:30.227Z,99563
2018-01-19T13:58:30.317Z,99561
2018-01-19T13:59:29.895Z,99559
2018-01-19T14:00:29.427Z,99554
2018-01-19T14:01:30.520Z,99562
2018-01-19T14:02:29.411Z,99556
2018-01-19T14:03:29.522Z,99556
2018-01-19T14:04:29.457Z,99572
2018-01-19T14:05:29.630Z,99558
2018-01-19T14:06:30.617Z,99557
2018-01-19T14:07:30.591Z,99559
2018-01-19T14:08:30.594Z,99554
2018-01-19T14:09:29.815Z,99553
2018-01-19T14:10:29.684Z,99555
2018-01-19T14:11:29.843Z,99551
2018-01-19T14:12:30.925Z,99538
2018-01-19T14:13:29.931Z,99551
2018-01-19T14:14:30.876Z,99550
2018-01-19T14:15:30.051Z,99553
2018-01-19T14:16:30.154Z,99550
2018-01-19T14:17:30.207Z,99547
2018-01-19T14:18:31.194Z,99541
2018-01-19T14:19:31.277Z,99547
2018-01-19T14:20:30.865Z,99550
2018-01-19T14:21:30.317Z,99554
2018-01-19T14:22:30.454Z,99541
2018-01-19T14:23:30.441Z,99552
2018-01-19T14:24:31.454Z,99550
2018-01-19T14:25:31.712Z,99554
2018-01-19T14:26:30.646Z,99538
2018-01-19T14:27:30.629Z,99551
2018-01-19T14:28:30.666Z,99554
2018-01-19T14:29:30.975Z,99542
2018-01-19T14:30:31.365Z,99549
2018-01-19T14:31:32.551Z,99553
2018-01-19T14:32:30.891Z,99553
2018-01-19T14:33:31.996Z,99554
2018-01-19T14:34:32.136Z,99556
2018-01-19T14:35:32.161Z,99551
2018-01-19T14:36:31.173Z,99553
2018-01-19T14:37:31.215Z,99561
2018-01-19T14:38:31.330Z,99560
2018-01-19T14:39:31.414Z,99555
2018-01-19T14:40:32.491Z,99555
2018-01-19T14:41:32.468Z,99553
2018-01-19T14:42:31.547Z,99554
2018-01-19T14:43:32.671Z,99569
2018-01-19T14:44:31.761Z,99572
2018-01-19T14:45:31.777Z,99571
2018-01-19T14:46:32.789Z,99568
2018-01-19T14:47:32.893Z,99572
2018-01-19T14:48:32.848Z,99571
2018-01-19T14:49:31.810Z,99570
2018-01-19T14:50:31.874Z,99574
2018-01-19T14:51:32.050Z,99569
2018-01-19T14:52:32.086Z,99565
2018-01-19T14:53:32.085Z,99566
2018-01-19T14:54:33.593Z,99554
2018-01-19T14:55:32.128Z,99559
2018-01-19T14:56:33.290Z,99562
2018-01-19T14:57:32.322Z,99556
2018-01-19T14:58:32.250Z,99559
2018-01-19T14:59:34.291Z,99548
2018-01-19T15:00:32.605Z,99547
2018-01-19T15:01:33.963Z,99561
2018-01-19T15:02:34.797Z,99557
2018-01-19T15:03:32.956Z,99560
2018-01-19T15:04:34.558Z,99566
2018-01-19T15:05:33.205Z,99568
2018-01-19T15:06:34.199Z,99560
2018-01-19T15:07:32.994Z,99570
2018-01-19T15:08:34.243Z,99575
2018-01-19T15:09:33.115Z,99583
2018-01-19T15:10:33.173Z,99585
2018-01-19T15:11:33.027Z,99588
2018-01-19T15:12:33.413Z,99593
2018-01-19T15:13:34.123Z,99598
2018-01-19T15:14:34.323Z,99598
2018-01-19T15:15:34.258Z,99610
2018-01-19T15:16:34.160Z,99613
2018-01-19T15:17:33.232Z,99615
2018-01-19T15:18:33.360Z,99613
2018-01-19T15:19:33.426Z,99620
2018-01-19T15:20:33.454Z,99619
2018-01-19T15:21:33.476Z,99621
2018-01-19T15:22:33.483Z,99620
2018-01-19T15:23:33.532Z,99618
2018-01-19T15:24:34.622Z,99612
2018-01-19T15:25:34.709Z,99616
2018-01-19T15:26:34.144Z,99616
2018-01-19T15:27:33.603Z,99607
2018-01-19T15:28:34.790Z,99603
2018-01-19T15:29:34.870Z,99613
2018-01-19T15:30:33.889Z,99597
2018-01-19T15:31:33.828Z,99604
2018-01-19T15:32:34.895Z,99605
2018-01-19T15:33:33.950Z,99604
2018-01-19T15:34:34.138Z,99601
2018-01-19T15:35:34.136Z,99602
2018-01-19T15:36:34.167Z,99598
2018-01-19T15:37:34.296Z,99587
2018-01-19T15:38:34.293Z,99595
2018-01-19T15:39:35.292Z,99595
2018-01-19T15:40:35.415Z,99593
2018-01-19T15:41:35.059Z,99592
2018-01-19T15:42:34.521Z,99601
2018-01-19T15:43:34.593Z,99604
2018-01-19T15:44:35.594Z,99605
2018-01-19T15:45:35.706Z,99601
2018-01-19T15:46:34.681Z,99608
2018-01-19T15:47:35.597Z,99600
2018-01-19T15:48:34.793Z,99585
2018-01-19T15:49:34.728Z,99596
2018-01-19T15:50:34.748Z,99586
2018-01-19T15:51:34.903Z,99588
2018-01-19T15:52:34.888Z,99581
2018-01-19T15:53:35.875Z,99581
2018-01-19T15:54:35.993Z,99565
2018-01-19T15:55:36.061Z,99571
2018-01-19T15:56:36.066Z,99568
2018-01-19T15:57:35.945Z,99554
2018-01-19T15:58:35.139Z,99561
2018-01-19T15:59:36.196Z,99551
2018-01-19T16:00:36.251Z,99556
2018-01-19T16:01:35.255Z,99566
2018-01-19T16:02:35.300Z,99555
2018-01-19T16:03:35.459Z,99555
2018-01-19T16:04:35.399Z,99544
2018-01-19T16:05:35.478Z,99554
2018-01-19T16:06:36.585Z,99552
2018-01-19T16:07:36.625Z,99553
2018-01-19T16:08:36.553Z,99554
2018-01-19T16:09:35.660Z,99557
2018-01-19T16:10:35.674Z,99551
2018-01-19T16:11:35.787Z,99550
2018-01-19T16:12:35.859Z,99549
2018-01-19T16:13:35.975Z,99538
2018-01-19T16:14:36.864Z,99552
2018-01-19T16:15:36.117Z,99547
2018-01-19T16:16:36.036Z,99551
2018-01-19T16:17:36.214Z,99548
2018-01-19T16:18:36.284Z,99545
2018-01-19T16:19:36.185Z,99549
2018-01-19T16:20:36.249Z,99550
2018-01-19T16:21:36.244Z,99542
2018-01-19T16:22:37.309Z,99551
2018-01-19T16:23:37.357Z,99551
2018-01-19T16:24:36.504Z,99552
2018-01-19T16:25:36.542Z,99556
2018-01-19T16:26:36.613Z,99549
2018-01-19T16:27:36.621Z,99552
2018-01-19T16:28:36.679Z,99559
2018-01-19T16:29:36.838Z,99551
2018-01-19T16:30:36.788Z,99546
2018-01-19T16:31:36.866Z,99548
2018-01-19T16:32:36.947Z,99545
2018-01-19T16:33:36.846Z,99538
2018-01-19T16:34:37.034Z,99548
2018-01-19T16:35:37.093Z,99539
2018-01-19T16:36:37.093Z,99553
2018-01-19T16:37:37.686Z,99541
2018-01-19T16:38:38.193Z,99553
2018-01-19T16:39:38.182Z,99548
2018-01-19T16:40:38.386Z,99547
2018-01-19T16:41:38.446Z,99544
2018-01-19T16:42:38.137Z,99543
2018-01-19T16:43:37.491Z,99542
2018-01-19T16:44:37.555Z,99541
2018-01-19T16:45:37.599Z,99538
2018-01-19T16:46:38.454Z,99542
2018-01-19T16:47:37.788Z,99543
2018-01-19T16:48:38.829Z,99543
2018-01-19T16:49:38.873Z,99543
2018-01-19T16:50:39.007Z,99547
2018-01-19T16:51:37.981Z,99545
2018-01-19T16:52:38.092Z,99529
2018-01-19T16:53:38.094Z,99542
2018-01-19T16:54:39.074Z,99532
2018-01-19T16:55:39.183Z,99544
2018-01-19T16:56:39.196Z,99531
2018-01-19T16:57:38.237Z,99545
2018-01-19T16:58:38.172Z,99531
2018-01-19T16:59:38.307Z,99543
2018-01-19T17:00:38.274Z,99531
2018-01-19T17:01:39.469Z,99547
2018-01-19T17:02:38.494Z,99547
2018-01-19T17:03:39.509Z,99544
2018-01-19T17:04:38.501Z,99543
2018-01-19T17:05:38.676Z,99546
2018-01-19T17:06:38.637Z,99550
2018-01-19T17:07:39.836Z,99551
2018-01-19T17:08:38.803Z,99551
2018-01-19T17:09:38.951Z,99550
2018-01-19T17:10:39.919Z,99549
2018-01-19T17:11:38.851Z,99540
2018-01-19T17:12:38.971Z,99554
2018-01-19T17:13:40.036Z,99543
2018-01-19T17:14:39.124Z,99555
2018-01-19T17:15:39.190Z,99555
2018-01-19T17:16:40.275Z,99557
2018-01-19T17:17:39.231Z,99548
2018-01-19T17:18:39.308Z,99561
2018-01-19T17:19:39.376Z,99550
2018-01-19T17:20:39.315Z,99559
2018-01-19T17:21:39.354Z,99562
2018-01-19T17:22:40.492Z,99564
2018-01-19T17:23:40.513Z,99562
2018-01-19T17:24:40.608Z,99561
2018-01-19T17:25:40.577Z,99549
2018-01-19T17:26:40.620Z,99565
2018-01-19T17:27:40.607Z,99557
2018-01-19T17:28:39.762Z,99563
2018-01-19T17:29:41.973Z,99555
2018-01-19T17:30:40.904Z,99564
2018-01-19T17:31:39.984Z,99565
2018-01-19T17:32:40.901Z,99566
2018-01-19T17:33:40.017Z,99555
2018-01-19T17:34:41.199Z,99563
2018-01-19T17:35:40.208Z,99563
2018-01-19T17:36:40.220Z,99562
2018-01-19T17:37:40.248Z,99566
2018-01-19T17:38:40.409Z,99566
2018-01-19T17:39:41.068Z,99565
2018-01-19T17:40:40.301Z,99569
2018-01-19T17:41:41.414Z,99566
2018-01-19T17:42:40.509Z,99568
2018-01-19T17:43:40.531Z,99573
2018-01-19T17:44:40.593Z,99573
2018-01-19T17:45:40.488Z,99584
2018-01-19T17:46:40.658Z,99586
2018-01-19T17:47:41.671Z,99586
2018-01-19T17:48:42.410Z,99582
2018-01-19T17:49:41.747Z,99583
2018-01-19T17:50:40.856Z,99581
2018-01-19T17:51:40.855Z,99572
2018-01-19T17:52:42.015Z,99582
2018-01-19T17:53:41.036Z,99584
2018-01-19T17:54:41.617Z,99568
2018-01-19T17:55:41.708Z,99579
2018-01-19T17:56:41.147Z,99580
2018-01-19T17:57:41.210Z,99582
2018-01-19T17:58:41.268Z,99575
2018-01-19T17:59:42.417Z,99583
2018-01-19T18:00:41.444Z,99580
2018-01-19T18:01:42.122Z,99580
2018-01-19T18:02:42.405Z,99579
2018-01-19T18:03:42.566Z,99574
2018-01-19T18:04:41.623Z,99586
2018-01-19T18:05:41.564Z,99583
2018-01-19T18:06:42.653Z,99575
2018-01-19T18:07:41.721Z,99590
2018-01-19T18:08:41.611Z,99589
2018-01-19T18:09:41.688Z,99592
2018-01-19T18:10:41.728Z,99591
2018-01-19T18:11:42.807Z,99591
2018-01-19T18:12:41.916Z,99594
2018-01-19T18:13:42.017Z,99593
2018-01-19T18:14:43.611Z,99579
2018-01-19T18:15:42.212Z,99585
2018-01-19T18:16:42.231Z,99584
2018-01-19T18:17:42.245Z,99588
2018-01-19T18:18:42.354Z,99584
2018-01-19T18:19:43.282Z,99592
2018-01-19T18:20:42.308Z,99597
2018-01-19T18:21:43.814Z,99594
2018-01-19T18:22:42.354Z,99583
2018-01-19T18:23:43.500Z,99576
2018-01-19T18:24:44.013Z,99569
2018-01-19T18:25:43.450Z,99566
2018-01-19T18:26:43.507Z,99568
2018-01-19T18:27:44.130Z,99565
2018-01-19T18:28:42.712Z,99575
2018-01-19T18:29:42.768Z,99582
2018-01-19T18:30:42.823Z,99578
2018-01-19T18:31:43.828Z,99582
2018-01-19T18:32:42.868Z,99572
2018-01-19T18:33:42.938Z,99589
2018-01-19T18:34:43.890Z,99585
2018-01-19T18:35:44.062Z,99583
2018-01-19T18:36:44.789Z,99569
2018-01-19T18:37:44.236Z,99588
2018-01-19T18:38:44.199Z,99600
2018-01-19T18:39:43.217Z,99606
2018-01-19T18:40:44.322Z,99605
2018-01-19T18:41:43.299Z,99599
2018-01-19T18:42:43.387Z,99590
2018-01-19T18:43:43.362Z,99592
2018-01-19T18:44:45.074Z,99586
2018-01-19T18:45:44.483Z,99576
2018-01-19T18:46:45.157Z,99585
2018-01-19T18:47:44.665Z,99585
2018-01-19T18:48:44.106Z,99575
2018-01-19T18:49:44.503Z,99601
2018-01-19T18:50:43.795Z,99613
2018-01-19T18:51:44.405Z,99624
2018-01-19T18:52:44.715Z,99622
2018-01-19T18:53:44.797Z,99610
2018-01-19T18:54:44.968Z,99597
2018-01-19T18:55:44.963Z,99594
2018-01-19T18:56:45.045Z,99584
2018-01-19T18:57:44.079Z,99590
2018-01-19T18:58:45.180Z,99581
2018-01-19T18:59:44.135Z,99590
2018-01-19T19:00:44.837Z,99593
2018-01-19T19:01:44.858Z,99592
2018-01-19T19:02:44.291Z,99593
2018-01-19T19:03:44.487Z,99592
2018-01-19T19:04:45.912Z,99597
2018-01-19T19:05:45.410Z,99591
2018-01-19T19:06:45.583Z,99593
2018-01-19T19:07:45.581Z,99578
2018-01-19T19:08:45.591Z,99588
2018-01-19T19:09:45.671Z,99583
2018-01-19T19:10:44.650Z,99580
2018-01-19T19:11:45.660Z,99580
2018-01-19T19:12:45.779Z,99575
2018-01-19T19:13:44.806Z,99579
2018-01-19T19:14:45.546Z,99581
2018-01-19T19:15:44.928Z,99581
2018-01-19T19:16:45.051Z,99581
2018-01-19T19:17:46.176Z,99580
2018-01-19T19:18:45.109Z,99577
2018-01-19T19:19:45.219Z,99575
2018-01-19T19:20:45.195Z,99578
2018-01-19T19:21:45.236Z,99578
2018-01-19T19:22:45.339Z,99576
2018-01-19T19:23:46.470Z,99571
2018-01-19T19:24:46.544Z,99576
2018-01-19T19:25:45.520Z,99572
2018-01-19T19:26:45.549Z,99570
2018-01-19T19:27:46.713Z,99569
2018-01-19T19:28:45.666Z,99573
2018-01-19T19:29:46.776Z,99561
2018-01-19T19:30:45.824Z,99572
2018-01-19T19:31:46.866Z,99573
2018-01-19T19:32:45.817Z,99567
2018-01-19T19:33:45.901Z,99576
2018-01-19T19:34:46.992Z,99575
2018-01-19T19:35:46.973Z,99573
2018-01-19T19:36:47.158Z,99573
2018-01-19T19:37:46.157Z,99573
2018-01-19T19:38:46.210Z,99560
2018-01-19T19:39:47.301Z,99574
2018-01-19T19:40:47.255Z,99571
2018-01-19T19:41:47.253Z,99574
2018-01-19T19:42:46.441Z,99574
2018-01-19T19:43:47.343Z,99575
2018-01-19T19:44:47.518Z,99575
2018-01-19T19:45:47.590Z,99577
2018-01-19T19:46:46.628Z,99583
2018-01-19T19:47:46.586Z,99581
2018-01-19T19:48:46.609Z,99582
2018-01-19T19:49:47.582Z,99574
2018-01-19T19:50:46.730Z,99580
2018-01-19T19:51:46.718Z,99573
2018-01-19T19:52:46.770Z,99579
2018-01-19T19:53:47.896Z,99579
2018-01-19T19:54:46.990Z,99580
2018-01-19T19:55:48.034Z,99579
2018-01-19T19:56:46.993Z,99578
2018-01-19T19:57:48.142Z,99580
2018-01-19T19:58:48.112Z,99579
2018-01-19T19:59:48.313Z,99577
2018-01-19T20:00:47.211Z,99575
2018-01-19T20:01:48.215Z,99582
2018-01-19T20:02:47.425Z,99580
2018-01-19T20:03:47.437Z,99579
2018-01-19T20:04:47.512Z,99568
2018-01-19T20:05:47.493Z,99580
2018-01-19T20:06:47.541Z,99576
2018-01-19T20:07:48.696Z,99567
2018-01-19T20:08:48.723Z,99585
2018-01-19T20:09:47.759Z,99581
2018-01-19T20:10:47.814Z,99583
2018-01-19T20:11:48.829Z,99574
2018-01-19T20:12:47.844Z,99583
2018-01-19T20:13:48.989Z,99583
2018-01-19T20:14:47.910Z,99572
2018-01-19T20:15:47.982Z,99585
2018-01-19T20:16:48.060Z,99588
2018-01-19T20:17:49.171Z,99591
2018-01-19T20:18:48.196Z,99597
2018-01-19T20:19:48.197Z,99601
2018-01-19T20:20:48.237Z,99599
2018-01-19T20:21:48.467Z,99610
2018-01-19T20:22:49.398Z,99598
2018-01-19T20:23:49.367Z,99606
2018-01-19T20:24:49.415Z,99608
2018-01-19T20:25:49.458Z,99600
2018-01-19T20:26:48.652Z,99590
2018-01-19T20:27:48.600Z,99593
2018-01-19T20:28:48.664Z,99577
2018-01-19T20:29:48.719Z,99580
2018-01-19T20:30:48.815Z,99586
2018-01-19T20:31:48.960Z,99590
2018-01-19T20:32:48.912Z,99590
2018-01-19T20:33:49.038Z,99586
2018-01-19T20:34:50.070Z,99582
2018-01-19T20:35:49.099Z,99578
2018-01-19T20:36:50.061Z,99572
2018-01-19T20:37:50.110Z,99581
2018-01-19T20:38:49.232Z,99579
2018-01-19T20:39:49.392Z,99569
2018-01-19T20:40:49.475Z,99574
2018-01-19T20:41:50.482Z,99580
2018-01-19T20:42:49.579Z,99581
2018-01-19T20:43:49.519Z,99569
2018-01-19T20:44:49.527Z,99586
2018-01-19T20:45:49.652Z,99588
2018-01-19T20:46:49.698Z,99585
2018-01-19T20:47:50.681Z,99585
2018-01-19T20:48:50.639Z,99587
2018-01-19T20:49:49.882Z,99582
2018-01-19T20:50:50.921Z,99583
2018-01-19T20:51:50.996Z,99583
2018-01-19T20:52:51.057Z,99583
2018-01-19T20:53:50.072Z,99585
2018-01-19T20:54:50.214Z,99571
2018-01-19T20:55:51.248Z,99583
2018-01-19T20:56:50.367Z,99584
2018-01-19T20:57:50.320Z,99585
2018-01-19T20:58:50.413Z,99575
2018-01-19T20:59:50.477Z,99585
2018-01-19T21:00:51.533Z,99583
2018-01-19T21:01:51.556Z,99578
2018-01-19T21:02:50.706Z,99581
2018-01-19T21:03:51.735Z,99591
2018-01-19T21:04:51.786Z,99590
2018-01-19T21:05:50.798Z,99588
2018-01-19T21:06:50.934Z,99579
2018-01-19T21:07:50.862Z,99589
2018-01-19T21:08:50.903Z,99585
2018-01-19T21:09:50.944Z,99588
2018-01-19T21:10:50.971Z,99582
2018-01-19T21:11:52.158Z,99588
2018-01-19T21:12:51.183Z,99586
2018-01-19T21:13:51.293Z,99592
2018-01-19T21:14:51.349Z,99584
2018-01-19T21:15:51.268Z,99584
2018-01-19T21:16:51.381Z,99599
2018-01-19T21:17:51.515Z,99598
2018-01-19T21:18:52.558Z,99600
2018-01-19T21:19:51.565Z,99598
2018-01-19T21:20:51.616Z,99597
2018-01-19T21:21:51.673Z,99597
2018-01-19T21:22:51.726Z,99587
2018-01-19T21:23:51.809Z,99590
2018-01-19T21:24:51.961Z,99598
2018-01-19T21:25:52.983Z,99600
2018-01-19T21:26:52.020Z,99595
2018-01-19T21:27:51.949Z,99589
2018-01-19T21:28:51.964Z,99596
2018-01-19T21:29:52.182Z,99595
2018-01-19T21:30:52.135Z,99597
2018-01-19T21:31:53.258Z,99588
2018-01-19T21:32:52.279Z,99603
2018-01-19T21:33:53.309Z,99597
2018-01-19T21:34:53.346Z,99598
2018-01-19T21:35:53.258Z,99600
2018-01-19T21:36:53.392Z,99603
2018-01-19T21:37:52.393Z,99600
2018-01-19T21:38:52.418Z,99597
2018-01-19T21:39:53.472Z,99605
2018-01-19T21:40:52.693Z,99605
2018-01-19T21:41:52.724Z,99603
2018-01-19T21:42:52.716Z,99604
2018-01-19T21:43:53.883Z,99602
2018-01-19T21:44:53.978Z,99603
2018-01-19T21:45:52.972Z,99604
2018-01-19T21:46:53.056Z,99604
2018-01-19T21:47:52.968Z,99603
2018-01-19T21:48:54.087Z,99603
2018-01-19T21:49:53.152Z,99592
2018-01-19T22:32:14.601Z,99613
2018-01-19T22:33:14.628Z,99603
2018-01-19T22:34:14.743Z,99603
2018-01-19T22:35:14.755Z,99615
2018-01-19T22:36:14.912Z,99614
2018-01-19T22:37:14.863Z,99613
2018-01-19T22:38:15.979Z,99620
2018-01-19T22:39:16.054Z,99612
2018-01-19T22:40:16.013Z,99615
2018-01-19T22:41:15.197Z,99612
2018-01-19T22:42:16.240Z,99606
2018-01-19T22:43:16.162Z,99602
2018-01-19T22:44:15.265Z,99612
2018-01-19T22:45:15.299Z,99612
2018-01-19T22:46:15.451Z,99612
2018-01-19T22:47:15.440Z,99613
2018-01-19T22:48:15.587Z,99605
2018-01-19T22:49:15.567Z,99601
2018-01-19T22:50:15.568Z,99612
2018-01-19T22:51:15.586Z,99607
2018-01-19T22:52:15.664Z,99609
2018-01-19T22:53:15.696Z,99609
2018-01-19T22:54:15.869Z,99603
2018-01-19T22:55:15.813Z,99599
2018-01-19T22:56:15.811Z,99611
2018-01-19T22:57:15.997Z,99609
2018-01-19T22:58:16.001Z,99608
2018-01-19T22:59:15.929Z,99604
2018-01-19T23:00:16.004Z,99597
2018-01-19T23:01:16.109Z,99604
2018-01-19T23:02:16.155Z,99606
2018-01-19T23:03:16.249Z,99604
2018-01-19T23:04:17.271Z,99607
2018-01-19T23:05:16.283Z,99608
2018-01-19T23:06:16.430Z,99612
2018-01-19T23:07:16.495Z,99616
2018-01-19T23:08:16.537Z,99625
2018-01-19T23:09:16.523Z,99620
2018-01-19T23:10:16.645Z,99622
2018-01-19T23:11:16.651Z,99608
2018-01-19T23:12:17.690Z,99608
2018-01-19T23:13:17.804Z,99616
2018-01-19T23:14:16.777Z,99619
2018-01-19T23:15:17.770Z,99619
2018-01-19T23:16:16.960Z,99621
2018-01-19T23:17:16.998Z,99622
2018-01-19T23:18:16.982Z,99623
2018-01-19T23:19:17.012Z,99622
2018-01-19T23:20:17.069Z,99621
2018-01-19T23:21:17.121Z,99618
2018-01-19T23:22:17.208Z,99610
2018-01-19T23:23:17.263Z,99607
2018-01-19T23:24:17.331Z,99620
2018-01-19T23:25:18.266Z,99622
2018-01-19T23:26:17.371Z,99620
2018-01-19T23:27:17.380Z,99627
2018-01-19T23:28:17.450Z,99623
2018-01-19T23:29:17.472Z,99621
2018-01-19T23:30:17.620Z,99610
2018-01-19T23:31:18.535Z,99607
2018-01-19T23:32:18.694Z,99617
2018-01-19T23:33:18.737Z,99614
2018-01-19T23:34:18.735Z,99612
2018-01-19T23:35:18.877Z,99607
2018-01-19T23:36:18.028Z,99613
2018-01-19T23:37:17.912Z,99610
2018-01-19T23:38:17.988Z,99612
2018-01-19T23:39:19.025Z,99612
2018-01-19T23:40:18.189Z,99613
2018-01-19T23:41:18.267Z,99611
2018-01-19T23:42:19.345Z,99615
2018-01-19T23:43:18.297Z,99613
2018-01-19T23:44:18.422Z,99604
2018-01-19T23:45:19.471Z,99603
2018-01-19T23:46:19.519Z,99613
2018-01-19T23:47:18.474Z,99618
2018-01-19T23:48:18.643Z,99609
2018-01-19T23:49:19.684Z,99615
2018-01-19T23:50:18.696Z,99601
2018-01-19T23:51:19.851Z,99614
2018-01-19T23:52:18.865Z,99612
2018-01-19T23:53:20.005Z,99611
2018-01-19T23:54:20.017Z,99612
2018-01-19T23:55:20.031Z,99610
2018-01-19T23:56:18.962Z,99609
2018-01-19T23:57:19.039Z,99608
2018-01-19T23:58:19.181Z,99605
2018-01-19T23:59:19.205Z,99606
